ADDS METAR Data INFO
IDs: Format: Raw Decoded Include TAF

Data at: 2341 UTC 15 Dec 2017

KIKK 152335Z AUTO 23010KT 10SM OVC038 01/M07 A2996 RMK AO2 T00071071
KIKK 152315Z AUTO 23009KT 10SM OVC040 01/M07 A2996 RMK AO2 T00081072
KIKK 152255Z AUTO 24010KT 10SM BKN040 OVC060 01/M08 A2997 RMK AO2 T00081076
KIKK 152235Z AUTO 24012KT 10SM OVC040 01/M08 A2997 RMK AO2 T00101078
KIKK 152215Z AUTO 24011KT 10SM BKN040 OVC060 01/M08 A2996 RMK AO2 T00101078
KIKK 152155Z AUTO 25011KT 10SM SCT040 OVC060 01/M08 A2996 RMK AO2 T00101079
KIKK 152135Z AUTO 26013KT 10SM SCT040 OVC060 01/M08 A2995 RMK AO2 T00101079
KIKK 152115Z AUTO 27012KT 10SM OVC040 01/M07 A2995 RMK AO2 T00111075
KIKK 152055Z AUTO 26014G18KT 10SM OVC042 01/M07 A2995 RMK AO2 T00111075
KIKK 152035Z AUTO 28016G20KT 10SM -DZ OVC042 01/M07 A2996 RMK AO2 T00111075
KIKK 152015Z AUTO 28015KT 10SM OVC042 01/M08 A2995 RMK AO2 T00131080
KIKK 151955Z AUTO 28012KT 10SM OVC040 01/M08 A2995 RMK AO2 T00131080
KIKK 151935Z AUTO 28015G20KT 10SM OVC040 01/M08 A2995 RMK AO2 T00121083
KIKK 151915Z AUTO 29013G21KT 10SM OVC040 01/M08 A2996 RMK AO2 T00101083
KIKK 151855Z AUTO 30016G23KT 10SM OVC040 01/M08 A2996 RMK AO2 T00101085
KIKK 151835Z AUTO 30017G21KT 10SM SCT040 01/M09 A2996 RMK AO2 T00101090
KIKK 151815Z AUTO 29014G20KT 10SM CLR 01/M09 A2996 RMK AO2 T00081089
KIKK 151755Z AUTO 31012G17KT 10SM BKN039 01/M09 A2997 RMK AO2 T00061089 10006 21040
KIKK 151735Z AUTO 30013G21KT 10SM OVC039 00/M09 A2998 RMK AO2 T00001092
KIKK 151715Z AUTO 30018G25KT 10SM BKN035 00/M09 A2999 RMK AO2 T10031095
KIKK 151655Z AUTO 30017G25KT 10SM BKN033 M01/M09 A2999 RMK AO2 T10101095
KIKK 151635Z AUTO 29018G25KT 10SM OVC031 M01/M09 A3000 RMK AO2 T10081094
KIKK 151615Z AUTO 29022G27KT 10SM OVC031 M01/M09 A2999 RMK AO2 T10141093
KIKK 151555Z AUTO 28021G26KT 10SM BKN029 OVC036 M02/M09 A2999 RMK AO2 T10171086
KIKK 151535Z AUTO 28017G22KT 10SM OVC033 M01/M09 A2999 RMK AO2 T10151094
KIKK 151515Z AUTO 30019G27KT 10SM OVC033 M02/M10 A2999 RMK AO2 T10201096
KIKK 151455Z AUTO 30018G26KT 10SM SCT025 OVC031 M02/M09 A2999 RMK AO2 T10221094
KIKK 151435Z AUTO 28020G23KT 10SM -RA OVC025 M02/M07 A2998 RMK AO2 T10221071
KIKK 151415Z AUTO 27014KT 10SM -DZ OVC027 M02/M07 A2997 RMK AO2 T10231069
KIKK 151355Z AUTO 26014KT 10SM BKN024 OVC029 M02/M07 A2997 RMK AO2 T10251070
KIKK 151335Z AUTO 26014G20KT 10SM OVC026 M03/M07 A2997 RMK AO2 T10271070
KIKK 151315Z AUTO 26014G18KT 10SM OVC028 M03/M07 A2997 RMK AO2 T10281072
KIKK 151255Z AUTO 26014G18KT 10SM SCT021 OVC028 M03/M07 A2997 RMK AO2 T10301074
KIKK 151235Z AUTO 25013KT 10SM BKN021 BKN030 OVC037 M03/M08 A2997 RMK AO2 T10301076
KIKK 151215Z AUTO 24009KT 10SM OVC037 M04/M08 A2997 RMK AO2 T10361080
KIKK 151155Z AUTO 23010KT 10SM SCT026 OVC037 M04/M08 A2997 RMK AO2 T10401081 11040 21100
KIKK 151135Z AUTO 23009KT 10SM OVC026 M04/M08 A2997 RMK AO2 T10421085
KIKK 151115Z AUTO 24010KT 10SM SCT024 OVC045 M04/M09 A2998 RMK AO2 T10451090
KIKK 151055Z AUTO 23008KT 10SM SCT024 OVC040 M05/M09 A2998 RMK AO2 T10471093
KIKK 151035Z AUTO 23008KT 10SM OVC040 M05/M10 A2999 RMK AO2 T10501097
KIKK 151015Z AUTO 22008KT 10SM SCT026 OVC040 M05/M10 A2999 RMK AO2 T10521100
KIKK 150955Z AUTO 23007KT 10SM OVC026 M06/M10 A3000 RMK AO2 T10571103
KIKK 150935Z AUTO 23007KT 10SM OVC028 M06/M10 A3001 RMK AO2 T10571105
KIKK 150915Z AUTO 22007KT 10SM OVC028 M06/M10 A3001 RMK AO2 T10581105
KIKK 150855Z AUTO 22005KT 10SM OVC030 M06/M10 A3002 RMK AO2 T10571105
KIKK 150835Z AUTO 21005KT 10SM OVC030 M06/M11 A3002 RMK AO2 T10601107
KIKK 150815Z AUTO 22004KT 10SM OVC030 M06/M11 A3003 RMK AO2 T10621109
KIKK 150755Z AUTO 21004KT 10SM OVC030 M07/M11 A3003 RMK AO2 T10721112
KIKK 150735Z AUTO 00000KT 10SM OVC030 M08/M12 A3003 RMK AO2 T10791119
KIKK 150715Z AUTO 00000KT 10SM OVC030 M08/M12 A3003 RMK AO2 T10811123
KIKK 150655Z AUTO 00000KT 10SM OVC030 M09/M12 A3003 RMK AO2 T10871117
KIKK 150635Z AUTO 00000KT 10SM BKN032 M09/M12 A3004 RMK AO2 T10871121
KIKK 150615Z AUTO 00000KT 10SM CLR M09/M13 A3005 RMK AO2 T10941126
KIKK 150555Z AUTO 00000KT 10SM CLR M09/M13 A3006 RMK AO2 T10931130 11042 21093 410131093
KIKK 150535Z AUTO 00000KT 10SM CLR M09/M13 A3006 RMK AO2 T10881126
KIKK 150515Z AUTO 00000KT 10SM CLR M08/M13 A3007 RMK AO2 T10811127
KIKK 150455Z AUTO 00000KT 10SM CLR M08/M13 A3007 RMK AO2 T10841127
KIKK 150435Z AUTO 28003KT 10SM CLR M08/M13 A3008 RMK AO2 T10801127
KIKK 150415Z AUTO 27004KT 10SM CLR M08/M13 A3008 RMK AO2 T10791126
KIKK 150355Z AUTO 25004KT 10SM CLR M07/M12 A3009 RMK AO2 T10751125
KIKK 150335Z AUTO 27004KT 10SM CLR M08/M12 A3009 RMK AO2 T10801125
KIKK 150315Z AUTO 25004KT 10SM CLR M07/M12 A3009 RMK AO2 T10711121
KIKK 150255Z AUTO 26004KT 10SM CLR M08/M12 A3010 RMK AO2 T10761122
KIKK 150235Z AUTO 25003KT 10SM CLR M07/M12 A3010 RMK AO2 T10731120
KIKK 150215Z AUTO 26003KT 10SM CLR M06/M12 A3009 RMK AO2 T10641118
KIKK 150155Z AUTO 27003KT 10SM CLR M06/M11 A3009 RMK AO2 T10611115
KIKK 150135Z AUTO 29003KT 10SM CLR M06/M12 A3010 RMK AO2 T10621117
KIKK 150115Z AUTO 28003KT 10SM CLR M05/M12 A3010 RMK AO2 T10531116
KIKK 150055Z AUTO 30004KT 10SM CLR M05/M12 A3010 RMK AO2 T10531116
KIKK 150035Z AUTO 00000KT 10SM CLR M05/M11 A3009 RMK AO2 T10551114
KIKK 150015Z AUTO 31003KT 10SM CLR M04/M11 A3009 RMK AO2 T10431113
KIKK 142355Z AUTO 31003KT 10SM CLR M04/M11 A3009 RMK AO2 T10451110 11018 21045
KIKK 142335Z AUTO 29004KT 10SM CLR M04/M11 A3009 RMK AO2 T10441108
KIKK 142315Z AUTO 30004KT 10SM CLR M04/M11 A3009 RMK AO2 T10411108
KIKK 142255Z AUTO 29005KT 10SM CLR M04/M10 A3009 RMK AO2 T10361102
KIKK 142235Z AUTO 29004KT 10SM CLR M03/M10 A3008 RMK AO2 T10301103
KIKK 142215Z AUTO 30003KT 10SM CLR M03/M10 A3008 RMK AO2 T10301100
KIKK 142155Z AUTO 31003KT 10SM CLR M03/M10 A3008 RMK AO2 T10271098
KIKK 142135Z AUTO 30003KT 10SM CLR M02/M10 A3007 RMK AO2 T10251099
KIKK 142115Z AUTO 31004KT 10SM CLR M02/M10 A3007 RMK AO2 T10211100
KIKK 142055Z AUTO 27004KT 10SM CLR M02/M10 A3007 RMK AO2 T10211101
KIKK 142035Z AUTO 28003KT 10SM CLR M02/M10 A3007 RMK AO2 T10211103
KIKK 142015Z AUTO 28005KT 10SM CLR M02/M10 A3006 RMK AO2 T10201103
KIKK 141955Z AUTO 30003KT 10SM CLR M02/M10 A3006 RMK AO2 T10191104
KIKK 141935Z AUTO 27003KT 10SM CLR M02/M10 A3006 RMK AO2 T10201105
KIKK 141915Z AUTO 00000KT 10SM CLR M02/M11 A3006 RMK AO2 T10211109
KIKK 141855Z AUTO 00000KT 10SM CLR M02/M11 A3006 RMK AO2 T10211109
KIKK 141835Z AUTO 00000KT 10SM CLR M02/M11 A3007 RMK AO2 T10231106
KIKK 141815Z AUTO 00000KT 10SM SCT030 M02/M11 A3007 RMK AO2 T10251106
KIKK 141755Z AUTO 00000KT 10SM OVC030 M02/M10 A3008 RMK AO2 T10221102 11021 21075
KIKK 141735Z AUTO 00000KT 10SM BKN030 M02/M10 A3008 RMK AO2 T10251101
KIKK 141715Z AUTO 00000KT 10SM CLR M02/M10 A3008 RMK AO2 T10251097
KIKK 141655Z AUTO 34003KT 10SM SCT026 SCT048 M03/M10 A3008 RMK AO2 T10311096
KIKK 141635Z AUTO 34003KT 10SM OVC026 M04/M10 A3009 RMK AO2 T10451101
KIKK 141615Z AUTO 02003KT 10SM BKN026 BKN050 M05/M10 A3010 RMK AO2 T10521104
KIKK 141555Z AUTO 34005KT 10SM BKN050 M06/M11 A3010 RMK AO2 T10561106
KIKK 141535Z AUTO 35004KT 10SM SCT027 SCT032 BKN050 M06/M11 A3010 RMK AO2 T10641108
KIKK 141515Z AUTO 36004KT 10SM BKN029 BKN041 BKN050 M07/M11 A3009 RMK AO2 T10671108
KIKK 141455Z AUTO 33006KT 10SM SCT031 OVC043 M07/M11 A3008 RMK AO2 T10711109
KIKK 141435Z AUTO 33006KT 10SM SCT026 OVC044 M07/M11 A3007 RMK AO2 T10741111
KIKK 141415Z AUTO 32004KT 10SM OVC044 M07/M11 A3006 RMK AO2 T10731109
KIKK 141355Z AUTO 32006KT 10SM OVC046 M07/M11 A3004 RMK AO2 T10721108
KIKK 141335Z AUTO 34007KT 10SM OVC046 M07/M11 A3002 RMK AO2 T10721106
KIKK 141315Z AUTO 34006KT 10SM OVC046 M07/M10 A3001 RMK AO2 T10701104
KIKK 141255Z AUTO 31004KT 10SM OVC046 M07/M10 A3001 RMK AO2 T10701103
KIKK 141235Z AUTO 32006KT 10SM OVC044 M07/M10 A3001 RMK AO2 T10681102
KIKK 141215Z AUTO 32007KT 10SM OVC046 M06/M10 A3000 RMK AO2 T10651098
KIKK 141155Z AUTO 31008KT 10SM OVC046 M06/M09 A2999 RMK AO2 T10631095 11013 21063